Time;durP1;ratioP1;P1;durP2;ratioP2;P2;SDS_P1;SDS_P2;PMS_P1;PMS_P2;Temp;Humidity;BMP_temperature;BMP_pressure;BME280_temperature;BME280_humidity;BME280_pressure;Samples;Min_cycle;Max_cycle;Signal;HPM_P1;HPM_P2
2023/09/13 00:00:09;;;;;;;;;15.67;13.67;;;;;20.46;91.49;101327.09;5088742;27;71596;-59
2023/09/13 00:02:34;;;;;;;;;11.00;11.00;;;;;20.45;90.98;101328.06;5090333;27;45440;-59
2023/09/13 00:05:00;;;;;;;;;19.00;15.33;;;;;20.44;90.82;101329.06;5097214;27;45292;-59
2023/09/13 00:07:25;;;;;;;;;12.67;12.67;;;;;20.42;90.81;101324.78;5096741;27;45580;-59
2023/09/13 00:09:51;;;;;;;;;15.33;13.00;;;;;20.37;90.54;101327.03;5080621;27;46171;-59
2023/09/13 00:12:16;;;;;;;;;13.67;12.33;;;;;20.31;91.01;101331.06;5099862;27;65281;-59
2023/09/13 00:14:41;;;;;;;;;13.67;12.00;;;;;20.23;92.02;101330.84;5089930;27;67917;-59
2023/09/13 00:17:07;;;;;;;;;15.00;13.00;;;;;20.19;91.37;101327.53;5075674;27;68353;-59
2023/09/13 00:19:32;;;;;;;;;16.00;13.67;;;;;20.16;91.04;101327.81;5090116;27;50348;-59
2023/09/13 00:21:57;;;;;;;;;10.33;10.00;;;;;20.12;90.91;101332.59;5092028;27;70048;-58
2023/09/13 00:24:24;;;;;;;;;13.33;11.67;;;;;20.10;91.00;101333.72;5092912;27;45283;-59
2023/09/13 00:26:50;;;;;;;;;14.00;12.33;;;;;20.06;91.77;101333.09;5089877;27;45369;-59
2023/09/13 00:29:15;;;;;;;;;16.00;12.00;;;;;20.05;91.80;101330.53;5090188;27;46112;-59
2023/09/13 00:31:41;;;;;;;;;13.00;13.00;;;;;20.01;92.26;101329.91;5091988;27;68398;-59
2023/09/13 00:34:07;;;;;;;;;12.67;12.00;;;;;19.99;91.33;101323.78;5091169;27;45391;-59
2023/09/13 00:36:33;;;;;;;;;17.67;15.33;;;;;19.97;92.03;101332.03;5096866;27;45556;-59
2023/09/13 00:38:58;;;;;;;;;10.00;10.00;;;;;19.98;91.57;101324.78;5094860;27;46023;-59
2023/09/13 00:41:23;;;;;;;;;17.00;14.00;;;;;19.97;92.64;101332.03;5093082;27;45252;-59
2023/09/13 00:43:49;;;;;;;;;13.00;10.00;;;;;19.95;92.46;101328.56;5098777;27;45414;-59
2023/09/13 00:46:15;;;;;;;;;20.00;15.00;;;;;19.93;92.14;101330.56;5092268;27;45546;-59
2023/09/13 00:48:41;;;;;;;;;13.67;12.00;;;;;19.91;91.54;101332.50;5074543;27;60095;-59
2023/09/13 00:51:08;;;;;;;;;18.00;13.00;;;;;19.89;92.58;101333.63;5097829;27;45231;-59
2023/09/13 00:53:33;;;;;;;;;11.67;10.33;;;;;19.87;92.41;101331.06;5096660;27;56622;-59
2023/09/13 00:55:59;;;;;;;;;16.00;12.00;;;;;19.85;92.19;101335.72;5072361;27;45490;-59
2023/09/13 00:58:25;;;;;;;;;9.67;9.33;;;;;19.85;92.31;101343.81;5091347;27;46868;-59
2023/09/13 01:00:53;;;;;;;;;13.67;13.67;;;;;19.80;93.05;101345.97;5083003;27;45725;-59
2023/09/13 01:03:19;;;;;;;;;13.00;12.00;;;;;19.78;92.40;101339.88;5071246;27;45453;-59
2023/09/13 01:05:45;;;;;;;;;12.33;12.33;;;;;19.80;92.08;101340.59;5089774;27;45540;-59
2023/09/13 01:08:10;;;;;;;;;13.00;12.67;;;;;19.79;93.24;101339.75;5072757;27;45485;-59
2023/09/13 01:10:35;;;;;;;;;14.00;13.33;;;;;19.78;92.68;101338.00;5082517;27;69188;-59
2023/09/13 01:13:01;;;;;;;;;12.67;10.67;;;;;19.77;92.92;101343.53;5087127;27;68359;-59
2023/09/13 01:15:28;;;;;;;;;13.00;13.00;;;;;19.76;92.47;101344.53;5097535;27;45412;-59
2023/09/13 01:18:05;;;;;;;;;12.67;12.67;;;;;19.73;92.42;101342.91;5080222;27;46073;-59
2023/09/13 01:20:38;;;;;;;;;9.67;8.33;;;;;19.70;92.35;101336.91;5097501;27;45717;-59
2023/09/13 01:23:19;;;;;;;;;16.67;13.67;;;;;19.69;92.66;101336.06;5070455;27;47053;-59
2023/09/13 01:25:56;;;;;;;;;14.33;14.33;;;;;19.67;92.77;101341.59;5084114;27;46271;-58
2023/09/13 01:28:41;;;;;;;;;13.33;13.33;;;;;19.64;93.09;101341.81;5090594;27;45881;-59
2023/09/13 01:31:10;;;;;;;;;11.00;8.00;;;;;19.72;92.45;101338.50;5069016;27;45433;-59
2023/09/13 01:33:35;;;;;;;;;13.67;13.67;;;;;19.85;93.70;101332.16;5068015;27;45380;-59
2023/09/13 01:36:01;;;;;;;;;18.33;15.00;;;;;19.90;92.85;101325.41;5088273;27;45644;-59
2023/09/13 01:38:27;;;;;;;;;18.00;16.00;;;;;19.94;93.33;101329.56;5095056;27;46380;-59
2023/09/13 01:41:01;;;;;;;;;10.67;10.67;;;;;19.95;92.86;101333.13;5066947;27;45378;-59
2023/09/13 01:43:27;;;;;;;;;18.33;17.67;;;;;19.95;93.14;101333.13;5070046;28;45440;-59
2023/09/13 01:45:53;;;;;;;;;20.00;16.00;;;;;19.95;93.35;101339.38;5089871;27;62891;-59
2023/09/13 01:48:20;;;;;;;;;21.00;17.00;;;;;19.96;93.12;101345.66;5052996;28;72709;-59
2023/09/13 01:50:46;;;;;;;;;14.33;14.33;;;;;19.92;91.55;101342.34;5062556;27;65398;-59
2023/09/13 01:53:11;;;;;;;;;15.33;15.33;;;;;19.87;92.11;101349.94;5093660;27;69329;-59
2023/09/13 01:55:36;;;;;;;;;17.00;15.33;;;;;19.84;91.95;101352.88;5089496;27;69363;-59
2023/09/13 01:58:02;;;;;;;;;17.33;14.33;;;;;19.80;93.33;101359.47;5086229;27;70722;-59
2023/09/13 02:00:27;;;;;;;;;16.67;16.00;;;;;19.76;92.68;101361.56;5095076;27;45236;-59
2023/09/13 02:02:53;;;;;;;;;17.00;15.33;;;;;19.74;92.77;101370.78;5076966;27;45537;-59
2023/09/13 02:05:18;;;;;;;;;14.33;14.33;;;;;19.69;92.17;101370.28;5095090;27;67121;-59
2023/09/13 02:07:43;;;;;;;;;17.67;14.33;;;;;19.63;91.99;101375.19;5092146;27;72368;-59
2023/09/13 02:10:08;;;;;;;;;14.67;14.33;;;;;19.59;93.82;101370.16;5079880;27;72856;-59
2023/09/13 02:12:34;;;;;;;;;15.67;14.00;;;;;19.51;93.61;101374.31;5086852;27;45767;-59
2023/09/13 02:14:59;;;;;;;;;15.00;13.67;;;;;19.46;93.89;101381.06;5094558;27;68225;-59
2023/09/13 02:17:24;;;;;;;;;15.00;12.67;;;;;19.44;93.85;101388.41;5088938;27;46071;-59
2023/09/13 02:19:51;;;;;;;;;15.00;13.00;;;;;19.41;94.95;101392.22;5093307;27;70666;-59
2023/09/13 02:22:16;;;;;;;;;11.67;11.67;;;;;19.40;94.96;101395.88;5078582;27;45496;-59
2023/09/13 02:24:42;;;;;;;;;14.00;10.33;;;;;19.40;93.59;101398.59;5095293;27;45342;-59
2023/09/13 02:27:07;;;;;;;;;17.00;16.00;;;;;19.39;94.26;101404.09;5094041;27;46282;-59
2023/09/13 02:29:32;;;;;;;;;14.00;14.00;;;;;19.39;94.74;101404.09;5086006;27;71311;-59
2023/09/13 02:31:58;;;;;;;;;16.67;16.00;;;;;19.40;94.97;101403.09;5091676;27;57429;-59
2023/09/13 02:34:23;;;;;;;;;15.67;15.67;;;;;19.40;94.54;101398.59;5091886;27;59818;-59
2023/09/13 02:36:49;;;;;;;;;15.00;13.00;;;;;19.39;94.43;101401.41;5088591;27;46186;-59
2023/09/13 02:39:39;;;;;;;;;12.00;12.00;;;;;19.37;94.90;101403.34;5088710;27;45482;-59
2023/09/13 02:42:05;;;;;;;;;17.67;15.67;;;;;19.40;95.76;101403.09;5079572;27;45409;-59
2023/09/13 02:44:31;;;;;;;;;16.33;15.67;;;;;19.44;95.57;101401.91;5095331;27;45340;-59
2023/09/13 02:46:57;;;;;;;;;13.00;10.33;;;;;19.46;95.17;101397.22;5097388;27;46089;-59
2023/09/13 02:49:23;;;;;;;;;17.00;16.00;;;;;19.46;94.17;101398.13;5084271;27;45355;-59
2023/09/13 02:51:49;;;;;;;;;15.00;12.00;;;;;19.46;95.39;101398.13;5098241;27;45434;-59
2023/09/13 02:54:14;;;;;;;;;16.00;12.67;;;;;19.44;95.18;101404.59;5087788;27;45216;-59
2023/09/13 02:56:39;;;;;;;;;14.67;13.33;;;;;19.42;94.86;101401.16;5067543;27;75558;-59
2023/09/13 02:59:05;;;;;;;;;14.33;13.33;;;;;19.42;94.84;101399.31;5088677;27;71492;-59
2023/09/13 03:01:30;;;;;;;;;16.00;14.67;;;;;19.43;95.35;101406.44;5097768;27;46631;-59
2023/09/13 03:03:56;;;;;;;;;20.00;14.67;;;;;19.43;95.28;101409.13;5095328;27;45278;-59
2023/09/13 03:06:21;;;;;;;;;15.00;13.33;;;;;19.44;95.70;101410.00;5088850;27;46754;-59
2023/09/13 03:08:47;;;;;;;;;18.33;15.33;;;;;19.46;95.79;101414.31;5096354;27;68674;-59
2023/09/13 03:11:14;;;;;;;;;14.00;12.33;;;;;19.48;95.57;101415.03;5088761;27;45544;-59
2023/09/13 03:13:40;;;;;;;;;12.33;11.33;;;;;19.49;95.61;101419.44;5092549;27;45342;-59
2023/09/13 03:16:12;;;;;;;;;14.00;13.00;;;;;19.54;95.30;101407.44;5087289;27;58967;-59
2023/09/13 03:18:37;;;;;;;;;16.67;15.00;;;;;19.53;94.86;101409.28;5090247;27;45292;-59
2023/09/13 03:21:06;;;;;;;;;14.33;11.33;;;;;19.52;94.41;101412.94;5082243;27;45473;-58
2023/09/13 03:23:31;;;;;;;;;13.33;13.00;;;;;19.48;95.11;101409.63;5094349;27;45735;-59
2023/09/13 03:25:56;;;;;;;;;14.67;12.33;;;;;19.45;95.03;101406.31;5094425;27;73821;-58
2023/09/13 03:28:22;;;;;;;;;12.00;11.33;;;;;19.41;95.70;101404.81;5078868;27;72165;-59
2023/09/13 03:30:47;;;;;;;;;16.00;12.00;;;;;19.36;96.30;101404.31;5091932;27;60610;-59
2023/09/13 03:33:12;;;;;;;;;12.33;9.67;;;;;19.32;95.91;101404.56;5076931;27;56068;-59
2023/09/13 03:35:38;;;;;;;;;14.33;12.67;;;;;19.31;95.97;101402.00;5094167;27;58716;-59
2023/09/13 03:38:03;;;;;;;;;14.67;12.67;;;;;19.33;96.21;101408.13;5088150;27;64741;-59
2023/09/13 03:40:28;;;;;;;;;13.67;11.67;;;;;19.34;95.97;101408.00;5100919;27;45271;-59
2023/09/13 03:42:54;;;;;;;;;11.33;10.33;;;;;19.38;95.79;101400.53;5096260;27;67996;-59
2023/09/13 03:45:19;;;;;;;;;12.33;12.00;;;;;19.43;95.50;101394.78;5092288;27;75017;-59
2023/09/13 03:47:44;;;;;;;;;10.00;10.00;;;;;19.46;95.63;101398.13;5086622;27;69888;-58
2023/09/13 03:50:10;;;;;;;;;12.33;11.00;;;;;19.48;95.05;101400.69;5097779;27;45442;-59
2023/09/13 03:52:35;;;;;;;;;12.00;10.00;;;;;19.49;95.17;101397.00;5081675;27;67970;-59
2023/09/13 03:55:00;;;;;;;;;12.00;10.33;;;;;19.47;94.56;101402.50;5086178;27;73765;-59
2023/09/13 03:57:26;;;;;;;;;10.33;10.33;;;;;19.45;95.11;101403.59;5086566;27;45497;-59
2023/09/13 03:59:51;;;;;;;;;13.67;12.33;;;;;19.43;94.57;101397.50;5100781;27;45721;-59
2023/09/13 04:02:16;;;;;;;;;12.33;10.00;;;;;19.40;94.93;101393.19;5094321;27;58608;-59
2023/09/13 04:04:42;;;;;;;;;11.67;11.67;;;;;19.36;95.20;101396.22;5086451;27;74557;-59
2023/09/13 04:07:07;;;;;;;;;10.33;9.00;;;;;19.32;95.30;101393.78;5087328;27;71478;-59
2023/09/13 04:09:32;;;;;;;;;16.00;12.00;;;;;19.28;94.91;101403.09;5065405;27;45696;-59
2023/09/13 04:11:58;;;;;;;;;13.33;11.33;;;;;19.27;95.55;101408.63;5093289;27;67283;-59
2023/09/13 04:14:23;;;;;;;;;14.00;11.00;;;;;19.25;95.61;101402.47;5100075;27;45304;-59
2023/09/13 04:16:48;;;;;;;;;13.33;12.33;;;;;19.24;95.37;101404.31;5099005;27;72969;-59
2023/09/13 04:19:13;;;;;;;;;12.67;11.33;;;;;19.24;95.60;101406.13;5084545;27;52870;-59
2023/09/13 04:21:39;;;;;;;;;13.67;13.00;;;;;19.24;95.27;101411.53;5087154;27;69694;-59
2023/09/13 04:24:04;;;;;;;;;11.00;10.00;;;;;19.23;95.59;101409.81;5080340;27;71730;-58
2023/09/13 04:26:30;;;;;;;;;9.67;7.33;;;;;19.24;95.21;101400.75;5087098;27;45315;-58
2023/09/13 04:28:55;;;;;;;;;10.33;10.33;;;;;19.23;95.90;101401.72;5098981;27;45799;-58
2023/09/13 04:31:20;;;;;;;;;10.00;10.00;;;;;19.24;96.14;101398.94;5083486;27;67543;-59
2023/09/13 04:33:51;;;;;;;;;11.67;9.67;;;;;19.23;96.08;101397.19;5086107;27;72699;-59
2023/09/13 04:36:16;;;;;;;;;11.00;10.67;;;;;19.24;95.73;101401.63;5096280;27;45229;-59
2023/09/13 04:38:41;;;;;;;;;11.67;9.67;;;;;19.24;95.34;101401.63;5100852;27;45210;-58
2023/09/13 04:41:13;;;;;;;;;9.00;9.00;;;;;19.28;95.20;101399.53;5084279;27;70427;-58
2023/09/13 04:43:38;;;;;;;;;4.00;3.67;;;;;19.32;94.91;101403.69;5080484;27;46275;-58
2023/09/13 04:46:03;;;;;;;;;9.00;9.00;;;;;19.34;95.06;101405.28;5067216;27;45559;-58
2023/09/13 04:48:29;;;;;;;;;10.00;10.00;;;;;19.37;94.84;101408.75;5084584;27;67682;-58
2023/09/13 04:50:54;;;;;;;;;12.00;10.00;;;;;19.37;94.43;101409.59;5084204;27;65107;-58
2023/09/13 04:53:19;;;;;;;;;10.00;9.00;;;;;19.38;93.70;101418.56;5093739;27;46727;-59
2023/09/13 04:55:45;;;;;;;;;11.00;11.00;;;;;19.39;94.40;101418.44;5093511;27;70495;-58
2023/09/13 04:58:10;;;;;;;;;10.33;8.67;;;;;19.40;94.34;101425.56;5092341;27;58242;-58
2023/09/13 05:00:36;;;;;;;;;13.33;10.67;;;;;19.42;94.27;101422.72;5084911;27;45267;-58
2023/09/13 05:03:01;;;;;;;;;7.00;7.00;;;;;19.44;93.39;101426.19;5082502;27;74052;-58
2023/09/13 05:05:26;;;;;;;;;10.67;7.00;;;;;19.44;93.21;101420.78;5088801;27;54384;-58
2023/09/13 05:07:53;;;;;;;;;10.00;10.00;;;;;19.44;92.81;101423.50;5086875;27;67194;-58
2023/09/13 05:10:19;;;;;;;;;9.67;9.67;;;;;19.42;93.18;101417.34;5082012;27;45443;-58
2023/09/13 05:12:47;;;;;;;;;10.00;9.00;;;;;19.41;93.34;101426.41;5091657;27;63609;-58
2023/09/13 05:15:12;;;;;;;;;10.00;9.00;;;;;19.39;93.39;101428.38;5075560;27;45660;-58
2023/09/13 05:17:37;;;;;;;;;9.33;9.33;;;;;19.40;93.28;101430.06;5094871;27;45615;-58
2023/09/13 05:20:03;;;;;;;;;11.67;9.67;;;;;19.42;93.02;101436.22;5094768;27;67049;-58
2023/09/13 05:22:29;;;;;;;;;9.67;8.67;;;;;19.43;92.79;101443.34;5080942;27;45473;-58
2023/09/13 05:24:54;;;;;;;;;12.67;12.00;;;;;19.44;92.06;101448.63;5090216;27;45539;-58
2023/09/13 05:27:19;;;;;;;;;12.00;11.33;;;;;19.44;92.98;101448.63;5087890;27;53381;-58
2023/09/13 05:29:45;;;;;;;;;13.67;12.33;;;;;19.45;93.27;101446.75;5089894;27;55771;-58
2023/09/13 05:32:10;;;;;;;;;13.00;13.00;;;;;19.45;93.43;101454.84;5085928;27;67567;-58
2023/09/13 05:34:35;;;;;;;;;10.00;10.00;;;;;19.43;93.09;101465.78;5082691;27;65106;-58
2023/09/13 05:37:01;;;;;;;;;11.33;9.33;;;;;19.41;93.25;101459.66;5086005;27;60869;-59
2023/09/13 05:39:26;;;;;;;;;12.67;11.33;;;;;19.40;93.89;101462.44;5088546;27;45928;-59
2023/09/13 05:41:54;;;;;;;;;9.67;8.00;;;;;19.39;93.72;101463.44;5093739;27;68582;-58
2023/09/13 05:44:21;;;;;;;;;9.67;9.67;;;;;19.38;93.67;101467.97;5070894;27;47372;-58
2023/09/13 05:46:46;;;;;;;;;9.00;8.00;;;;;19.38;93.82;101470.66;5059453;27;45723;-58
2023/09/13 05:49:12;;;;;;;;;10.33;10.33;;;;;19.39;93.58;101471.53;5087253;27;69213;-58
2023/09/13 05:51:37;;;;;;;;;14.33;12.33;;;;;19.40;93.17;101479.50;5087701;27;45940;-58
2023/09/13 05:54:03;;;;;;;;;11.00;10.67;;;;;19.42;93.41;101484.78;5087723;27;63514;-58
2023/09/13 05:56:28;;;;;;;;;10.67;10.00;;;;;19.43;93.62;101481.09;5091884;27;45184;-58
2023/09/13 05:58:54;;;;;;;;;12.00;10.00;;;;;19.46;93.25;101478.16;5088932;27;45211;-59
2023/09/13 06:01:19;;;;;;;;;13.00;12.67;;;;;19.49;93.73;101480.66;5085215;27;74063;-58
2023/09/13 06:03:44;;;;;;;;;14.33;14.00;;;;;19.51;93.33;101487.59;5091170;27;55986;-58
2023/09/13 06:06:11;;;;;;;;;10.00;10.00;;;;;19.55;92.96;101496.31;5089500;27;65030;-58
2023/09/13 06:08:36;;;;;;;;;14.33;11.00;;;;;19.58;92.98;101498.81;5092363;27;45295;-59
2023/09/13 06:11:01;;;;;;;;;8.67;8.00;;;;;19.64;92.65;101492.91;5071563;27;72930;-59
2023/09/13 06:13:27;;;;;;;;;7.33;7.00;;;;;19.78;91.50;101491.84;5091247;27;69129;-59
2023/09/13 06:15:52;;;;;;;;;11.67;11.67;;;;;19.90;91.96;101492.75;5088571;27;65807;-59
2023/09/13 06:18:17;;;;;;;;;12.67;11.67;;;;;19.91;90.97;101488.22;5084254;27;45544;-59
2023/09/13 06:20:43;;;;;;;;;12.67;10.00;;;;;19.90;90.88;101489.22;5085549;27;46154;-59
2023/09/13 06:23:39;;;;;;;;;11.67;11.67;;;;;19.88;90.56;101486.63;5083030;27;45476;-59
2023/09/13 06:26:05;;;;;;;;;8.33;8.33;;;;;19.89;91.03;101493.72;5088310;27;45351;-58
2023/09/13 06:28:31;;;;;;;;;11.67;9.67;;;;;19.90;90.49;101495.44;5090146;27;45317;-61
2023/09/13 06:30:57;;;;;;;;;11.67;8.00;;;;;19.90;90.50;101498.16;5066308;28;46305;-59
2023/09/13 06:33:24;;;;;;;;;11.00;11.00;;;;;19.88;90.29;101502.84;5063947;27;45408;-59
2023/09/13 06:35:49;;;;;;;;;12.67;10.00;;;;;19.87;90.08;101503.81;5063247;28;45295;-58
2023/09/13 06:38:15;;;;;;;;;10.00;10.00;;;;;19.88;90.50;101504.66;5070460;28;45456;-59
2023/09/13 06:40:43;;;;;;;;;9.67;8.00;;;;;19.89;90.31;101515.31;5064314;28;45348;-59
2023/09/13 06:43:09;;;;;;;;;8.67;8.67;;;;;19.92;90.03;101517.81;5070250;28;45493;-58
2023/09/13 06:45:35;;;;;;;;;10.00;9.00;;;;;19.99;90.33;101510.06;5057491;28;45430;-59
2023/09/13 06:48:00;;;;;;;;;11.50;11.50;;;;;20.07;90.13;101517.56;5058472;28;65211;-59
2023/09/13 06:50:26;;;;;;;;;11.33;11.33;;;;;20.09;89.54;101512.88;5058066;28;63254;-59
2023/09/13 06:52:51;;;;;;;;;11.00;10.00;;;;;20.12;89.43;101510.81;5057283;28;72167;-58
2023/09/13 06:55:17;;;;;;;;;8.33;8.00;;;;;20.21;89.40;101511.06;5061950;28;45314;-57
2023/09/13 06:57:43;;;;;;;;;14.00;9.67;;;;;20.30;89.27;101515.75;5057060;28;45612;-55
2023/09/13 07:00:09;;;;;;;;;12.00;11.00;;;;;20.36;88.45;101523.34;5058893;28;46613;-54
2023/09/13 07:02:34;;;;;;;;;10.00;9.00;;;;;20.42;88.43;101519.31;5067232;28;45459;-52
2023/09/13 07:05:00;;;;;;;;;7.00;6.33;;;;;20.53;87.53;101516.56;5063230;28;68243;-52
2023/09/13 07:07:25;;;;;;;;;13.33;11.00;;;;;20.69;87.93;101524.31;5062460;28;45535;-54
2023/09/13 07:09:51;;;;;;;;;11.33;10.00;;;;;20.80;86.63;101521.59;5070686;28;46189;-53
2023/09/13 07:12:16;;;;;;;;;10.33;9.00;;;;;20.86;85.96;101522.94;5069742;27;45450;-53
2023/09/13 07:14:41;;;;;;;;;8.00;8.00;;;;;20.91;85.65;101517.16;5074474;28;65676;-52
2023/09/13 07:17:07;;;;;;;;;9.67;9.67;;;;;20.95;85.15;101522.19;5064913;27;60824;-52
2023/09/13 07:19:32;;;;;;;;;9.00;8.67;;;;;21.01;84.66;101523.50;5081743;27;73675;-50
2023/09/13 07:21:57;;;;;;;;;11.00;7.33;;;;;21.12;84.73;101526.19;5063628;28;67250;-53
2023/09/13 07:24:23;;;;;;;;;12.00;10.00;;;;;21.23;84.53;101524.44;5058703;27;45378;-53
2023/09/13 07:26:48;;;;;;;;;10.00;10.00;;;;;21.36;83.72;101535.09;5070722;28;45503;-53
2023/09/13 07:29:13;;;;;;;;;10.67;9.00;;;;;21.45;82.82;101535.16;5058007;28;72032;-54
2023/09/13 07:31:39;;;;;;;;;10.67;9.00;;;;;21.45;82.18;101534.31;5092618;27;60583;-53
2023/09/13 07:34:04;;;;;;;;;9.00;8.67;;;;;21.44;82.06;101543.41;5093800;27;63328;-53
2023/09/13 07:36:30;;;;;;;;;11.00;9.00;;;;;21.42;82.02;101537.25;5081653;27;45612;-51
2023/09/13 07:38:55;;;;;;;;;12.00;12.00;;;;;21.41;81.88;101543.69;5090558;27;46092;-50
2023/09/13 07:41:21;;;;;;;;;9.67;9.67;;;;;21.34;81.92;101547.88;5100777;27;45463;-53
2023/09/13 07:43:46;;;;;;;;;10.67;9.67;;;;;21.28;81.95;101558.22;5091779;27;45397;-51
2023/09/13 07:46:12;;;;;;;;;11.33;9.67;;;;;21.22;81.52;101550.59;5093952;27;49053;-50
2023/09/13 07:48:37;;;;;;;;;9.67;8.67;;;;;21.21;81.39;101557.03;5087875;27;47056;-53
2023/09/13 07:51:04;;;;;;;;;7.00;6.00;;;;;21.27;81.63;101556.50;5085681;27;70914;-52
2023/09/13 07:53:30;;;;;;;;;7.33;7.33;;;;;21.40;81.33;101566.31;5070900;27;45985;-54
2023/09/13 07:55:59;;;;;;;;;10.67;8.33;;;;;21.47;80.22;101564.78;5090893;27;45536;-50
2023/09/13 07:58:24;;;;;;;;;7.67;7.00;;;;;21.57;80.57;101567.63;5094788;27;46305;-53
2023/09/13 08:00:50;;;;;;;;;9.00;9.00;;;;;21.79;80.29;101566.63;5093880;27;45595;-52
2023/09/13 08:03:15;;;;;;;;;10.00;10.00;;;;;22.09;79.45;101578.53;5090316;27;45441;-52
2023/09/13 08:05:42;;;;;;;;;10.00;10.00;;;;;22.30;78.07;101575.78;5093816;27;45868;-53
2023/09/13 08:08:09;;;;;;;;;7.67;7.67;;;;;22.36;77.99;101572.56;5080729;27;46320;-53
2023/09/13 08:10:34;;;;;;;;;6.75;6.75;;;;;22.39;77.42;101582.28;5088118;27;45291;-54
2023/09/13 08:12:59;;;;;;;;;10.67;7.33;;;;;22.47;77.15;101579.75;5095203;27;45411;-53
2023/09/13 08:15:25;;;;;;;;;8.00;8.00;;;;;22.58;76.22;101578.78;5089836;27;45304;-52
2023/09/13 08:17:50;;;;;;;;;6.50;6.50;;;;;22.60;75.70;101582.22;5091520;27;45341;-52
2023/09/13 08:20:15;;;;;;;;;10.00;8.00;;;;;22.68;74.96;101581.53;5090865;27;66707;-52
2023/09/13 08:22:41;;;;;;;;;9.67;8.00;;;;;22.81;74.46;101579.44;5081497;27;61368;-51
2023/09/13 08:25:09;;;;;;;;;6.00;6.00;;;;;23.05;75.37;101591.75;5095768;27;46633;-52
2023/09/13 08:27:35;;;;;;;;;9.00;7.00;;;;;23.21;74.61;101591.28;5097128;27;46186;-53
2023/09/13 08:30:00;;;;;;;;;12.00;8.00;;;;;23.29;73.12;101589.56;5086632;27;45496;-54
2023/09/13 08:32:25;;;;;;;;;11.25;9.50;;;;;23.36;72.87;101602.56;5083674;27;45408;-53
2023/09/13 08:34:51;;;;;;;;;9.00;7.33;;;;;23.40;72.44;101601.28;5089113;27;61814;-52
2023/09/13 08:37:16;;;;;;;;;8.75;8.75;;;;;23.36;72.34;101610.72;5085847;27;45579;-53
2023/09/13 08:39:42;;;;;;;;;10.00;10.00;;;;;23.32;72.24;101612.00;5085168;27;45414;-52
2023/09/13 08:42:07;;;;;;;;;12.00;6.67;;;;;23.20;71.81;101612.09;5086780;27;45439;-52
2023/09/13 08:44:34;;;;;;;;;7.67;6.67;;;;;23.07;71.39;101625.03;5086341;27;66448;-53
2023/09/13 08:47:01;;;;;;;;;8.00;8.00;;;;;22.89;72.37;101623.00;5068469;27;45597;-53
2023/09/13 08:49:26;;;;;;;;;10.00;10.00;;;;;22.72;71.84;101629.06;5064677;27;45513;-53
2023/09/13 08:51:53;;;;;;;;;7.25;6.50;;;;;22.56;72.60;101627.72;5088311;27;45554;-52
2023/09/13 08:54:19;;;;;;;;;11.33;9.00;;;;;22.51;72.55;101631.84;5092877;27;45288;-52
2023/09/13 08:56:45;;;;;;;;;14.33;10.67;;;;;22.46;72.13;101637.63;5080714;27;69083;-53
2023/09/13 08:59:12;;;;;;;;;10.50;9.25;;;;;22.45;72.50;101639.50;5080421;27;45366;-52
2023/09/13 09:01:37;;;;;;;;;10.00;9.00;;;;;22.65;72.58;101636.88;5091556;27;45417;-50
2023/09/13 09:04:03;;;;;;;;;9.67;7.00;;;;;23.79;70.93;101644.72;5066511;27;64904;-54
2023/09/13 09:06:32;;;;;;;;;9.67;8.33;;;;;24.56;68.55;101650.22;5072157;28;46108;-52
2023/09/13 09:08:58;;;;;;;;;10.00;9.00;;;;;25.10;67.57;101651.28;5067449;27;57826;-52
2023/09/13 09:11:26;;;;;;;;;8.00;6.75;;;;;25.41;65.82;101652.88;5066023;28;46853;-52
2023/09/13 09:13:53;;;;;;;;;8.75;7.75;;;;;25.25;65.30;101656.22;5093230;27;45296;-53
2023/09/13 09:16:19;;;;;;;;;10.00;8.75;;;;;24.91;66.12;101660.44;5086634;27;45473;-51
2023/09/13 09:18:45;;;;;;;;;8.25;7.00;;;;;24.54;65.15;101654.97;5066794;27;72078;-52
2023/09/13 09:21:11;;;;;;;;;4.75;4.75;;;;;24.26;66.66;101660.31;5061242;28;57000;-53
2023/09/13 09:23:38;;;;;;;;;7.00;7.00;;;;;24.06;66.46;101660.34;5084038;27;70362;-51
2023/09/13 09:26:04;;;;;;;;;9.00;7.67;;;;;23.97;66.99;101660.34;5084564;27;47050;-52
2023/09/13 09:28:31;;;;;;;;;7.50;6.00;;;;;23.99;66.91;101652.91;5083973;27;45563;-51
2023/09/13 09:30:59;;;;;;;;;5.00;5.00;;;;;24.17;66.48;101655.75;5083303;27;45417;-51
2023/09/13 09:33:30;;;;;;;;;6.00;6.00;;;;;24.51;65.78;101660.66;5071885;27;45504;-54
2023/09/13 09:36:00;;;;;;;;;6.00;6.00;;;;;24.75;64.35;101663.75;5090144;27;48119;-55
2023/09/13 09:38:28;;;;;;;;;8.00;6.50;;;;;24.87;64.79;101663.59;5062273;27;45548;-53
2023/09/13 09:41:02;;;;;;;;;4.50;3.00;;;;;24.74;63.83;101661.19;5088758;27;45244;-50
2023/09/13 09:43:27;;;;;;;;;6.25;5.75;;;;;24.48;64.31;101659.09;5073976;27;45608;-51
2023/09/13 09:45:53;;;;;;;;;3.50;3.50;;;;;24.20;64.79;101661.75;5091071;27;46253;-52
2023/09/13 09:48:19;;;;;;;;;4.00;4.00;;;;;24.02;64.51;101666.22;5064307;27;45423;-51
2023/09/13 09:50:46;;;;;;;;;4.75;4.75;;;;;23.94;65.22;101665.06;5083881;27;45484;-53
2023/09/13 09:53:13;;;;;;;;;3.00;3.00;;;;;24.07;65.80;101662.06;5084010;27;45524;-53
2023/09/13 09:55:39;;;;;;;;;6.00;5.00;;;;;24.41;64.67;101656.13;5081228;27;46285;-52
2023/09/13 09:58:05;;;;;;;;;3.75;3.75;;;;;24.83;64.31;101656.75;5060405;28;45554;-49
2023/09/13 10:00:30;;;;;;;;;6.00;5.00;;;;;25.28;63.46;101658.66;5053526;28;45441;-48
2023/09/13 10:02:56;;;;;;;;;0.75;0.00;;;;;26.00;62.12;101655.13;5065548;27;46798;-52
2023/09/13 10:05:21;;;;;;;;;3.00;3.00;;;;;27.23;60.21;101661.31;5078978;27;45408;-53
2023/09/13 10:07:54;;;;;;;;;3.00;3.00;;;;;28.49;57.90;101662.09;5070996;27;45386;-53
2023/09/13 10:10:30;;;;;;;;;7.50;5.00;;;;;29.30;55.41;101672.13;5069650;27;45327;-53
2023/09/13 10:12:55;;;;;;;;;0.00;0.00;;;;;29.78;53.69;101669.22;5080117;27;45567;-53
2023/09/13 10:15:21;;;;;;;;;3.00;3.00;;;;;30.20;52.50;101663.22;5080086;27;45403;-55
2023/09/13 10:17:48;;;;;;;;;3.00;3.00;;;;;30.41;50.24;101669.03;5056357;27;45371;-55
2023/09/13 10:20:16;;;;;;;;;3.25;3.25;;;;;30.35;47.88;101667.88;5065408;27;45291;-52
2023/09/13 10:22:42;;;;;;;;;5.00;5.00;;;;;30.10;48.52;101662.63;5079112;27;45428;-55
2023/09/13 10:25:11;;;;;;;;;5.00;5.00;;;;;29.77;49.23;101673.84;5061079;27;46091;-51
2023/09/13 10:27:38;;;;;;;;;5.50;5.50;;;;;29.82;49.23;101676.06;5080175;27;45472;-52
2023/09/13 10:30:04;;;;;;;;;5.25;5.00;;;;;30.08;50.43;101675.69;5049429;28;45479;-54
2023/09/13 10:32:47;;;;;;;;;5.00;4.00;;;;;29.81;49.56;101671.59;5030717;28;46795;-52
2023/09/13 10:35:13;;;;;;;;;4.25;4.25;;;;;29.29;50.11;101675.88;5040848;28;46219;-51
2023/09/13 10:37:52;;;;;;;;;2.50;2.50;;;;;28.66;49.20;101678.50;5032682;28;45657;-52
2023/09/13 10:40:22;;;;;;;;;3.75;3.75;;;;;28.07;49.86;101676.88;5047774;28;45746;-55
2023/09/13 10:42:48;;;;;;;;;5.00;3.50;;;;;27.60;48.81;101685.66;5047000;28;45382;-53
2023/09/13 10:45:18;;;;;;;;;6.50;4.00;;;;;27.13;50.79;101674.25;5052696;28;46085;-51
2023/09/13 10:47:44;;;;;;;;;2.75;2.50;;;;;26.81;51.04;101681.25;5043667;28;45609;-54
2023/09/13 10:50:10;;;;;;;;;4.00;3.25;;;;;26.59;52.53;101679.91;5056510;28;45387;-50
2023/09/13 10:52:36;;;;;;;;;4.75;3.50;;;;;26.48;53.26;101674.72;5055650;28;45315;-51
2023/09/13 10:55:06;;;;;;;;;4.25;3.00;;;;;26.53;53.44;101681.44;5045271;28;74697;-51
2023/09/13 10:57:32;;;;;;;;;4.25;3.75;;;;;26.84;54.18;101666.44;5047698;28;45446;-51
2023/09/13 10:59:58;;;;;;;;;4.50;4.50;;;;;27.26;53.10;101672.91;5049972;28;45533;-52
2023/09/13 11:02:24;;;;;;;;;5.00;5.00;;;;;27.55;52.76;101673.38;5053303;28;45311;-54
2023/09/13 11:04:50;;;;;;;;;6.75;4.50;;;;;27.67;51.13;101683.97;5050358;28;45257;-54
2023/09/13 11:07:16;;;;;;;;;1.50;1.50;;;;;27.63;51.77;101685.34;5042632;28;45453;-54
2023/09/13 11:09:42;;;;;;;;;16.67;15.67;;;;;27.53;50.99;101677.28;5020637;28;45419;-52